Nearby METAR Reports

 

EDNY - Friedrichshafen, Germany
Distance from station: O 31km
aktuell: 21.08.2014 03:50
klar
klar
 Wind von calm
Wind: Windstill
Temperatur: 11°C
Taupunkt: 9°C
Luftfeuchte: 88%
Luftdruck: 1018 hPa
Zusammenfassung: klar
Visibility: greater than 10 km
2014/08/21 01:50 EDNY 210150Z AUTO 00000KT CAVOK 11/09 Q1018
LSZR - Rheineck/Altenrh, Switzerland
Distance from station: SO 42km
aktuell: 21.08.2014 03:50
stark bewölkt
stark bewölkt
 Wind von O
Wind: O 6 km/h
Temperatur: 13°C
Taupunkt: 12°C
Luftfeuchte: 94%
Luftdruck: 1018 hPa
Clouds: stark bewölkt
Visibility: 10 km
Cloud details: stark bewölkt 2134 m
stark bewölkt 2743 m
2014/08/21 01:50 LSZR 210150Z AUTO 09003KT 9999 BKN070 BKN090 13/12 Q1018
LSZH - Zurich-Kloten (a, Switzerland
Distance from station: WSW 49km
aktuell: 21.08.2014 03:50
stark bewölkt
stark bewölkt
 Wind von S
Wind: S 6 km/h
Temperatur: 12°C
Taupunkt: 10°C
Luftfeuchte: 88%
Luftdruck: 1019 hPa
Clouds: stark bewölkt
Visibility: 10 km
Cloud details: Few Clouds 1219 m
stark bewölkt 1981 m
2014/08/21 01:50 LSZH 210150Z 19003KT 9999 FEW040 BKN065 12/10 Q1019 NOSIG
 
EDTD - Donaueschingen, Germany
Distance from station: NW 53km
aktuell: 30.04.2014 18:20
NOT Current
sehr leichter Niederschlag, geschlossene Wolkendecke
sehr leichter Niederschlag, geschlossene Wolkendecke
 Wind von SSW
Wind: SSW 9 km/h
Temperatur: 10°C
gefühlte Temperatur: 9°C
Taupunkt: 10°C
Luftfeuchte: 100%
Luftdruck: 1011 hPa
Zusammenfassung: sehr leichter Niederschlag
Clouds: geschlossene Wolkendecke
Visibility: 9 km
Cloud details: stark bewölkt 213 m
geschlossene Wolkendecke 335 m
2014/04/30 16:20 EDTD 301620Z 20005KT 9000 -RA BKN007 OVC011 10/10 Q1011 LAST ?
ETGZ - Messstetten, Germany
Distance from station: N 54km
aktuell: 30.09.2013 14:20
NOT Current
geschlossene Wolkendecke
geschlossene Wolkendecke
 Wind von varies
Wind: varies 4 km/h
Temperatur: 8°C
Taupunkt: 7°C
Luftfeuchte: 93%
Luftdruck: 1007 hPa
Clouds: geschlossene Wolkendecke
Visibility: 10 km
Cloud details: geschlossene Wolkendecke 213 m
2013/09/30 12:20 ETGZ 301220Z VRB02KT 9999 OVC007 08/07 Q1007 GRN
LOIH - Hohenems-Dornbir, Austria
Distance from station: SO 57km
aktuell: 20.08.2014 17:00
NOT Current
geschlossene Wolkendecke
geschlossene Wolkendecke
 Wind von N
Wind: N 4 km/h
Temperatur: 18°C
Taupunkt: 13°C
Luftfeuchte: 73%
Luftdruck: 1016 hPa
Clouds: geschlossene Wolkendecke
Cloud details: Few Clouds 1067 m
geschlossene Wolkendecke 1829 m
2014/08/20 15:00 LOIH 201500Z 36002KT 35KM FEW035CU OVC060SC 18/13 Q1016 RMK OVC
 
ETHL - Laupheim (ger-Ar, Germany
Distance from station: NO 84km
aktuell: 21.08.2014 03:20
teilweise bewölkt
teilweise bewölkt
 Wind von WSW
Wind: WSW 7 km/h
Temperatur: 11°C
Taupunkt: 9°C
Luftfeuchte: 88%
Luftdruck: 1018 hPa
Clouds: teilweise bewölkt
Visibility: 10 km
Cloud details: teilweise bewölkt 1219 m
teilweise bewölkt 3048 m
2014/08/21 01:20 ETHL 210120Z 24004KT 9999 SCT040 SCT100 11/09 Q1018 BLU+
EDJA - Memmingen Allgau, Germany
Distance from station: ONO 90km
aktuell: 20.08.2014 21:50
NOT Current
Light drizzle, stark bewölkt
Light drizzle, stark bewölkt
 Wind von varies
Wind: varies 4 km/h
Temperatur: 13°C
Taupunkt: 11°C
Luftfeuchte: 88%
Luftdruck: 1016 hPa
Zusammenfassung: Light Drizzle
Clouds: stark bewölkt
Visibility: 10 km
Cloud details: Few Clouds 823 m
stark bewölkt 1372 m
2014/08/20 19:50 EDJA 201950Z VRB02KT 9999 -DZ FEW027 BKN045 13/11 Q1016
LSME - Emmen, Switzerland
Distance from station: SW 90km
aktuell: 20.08.2014 20:50
NOT Current
stark bewölkt
stark bewölkt
 Wind von calm
Wind: Windstill
Temperatur: 16°C
Taupunkt: 12°C
Luftfeuchte: 77%
Luftdruck: 1016 hPa
Clouds: stark bewölkt
Visibility: 16 miles
Cloud details: teilweise bewölkt 1433 m
stark bewölkt 2164 m
stark bewölkt 2682 m
2014/08/20 18:50 LSME 201850Z AUTO 00000KT 9999NDV SCT047 BKN071 BKN088 16/12 Q1016 RMK WHT
 
LSZC - Buochs, Switzerland
Distance from station: SSW 98km
aktuell: 21.08.2014 03:50
Few Clouds
Few Clouds
 Wind von varies
Wind: varies 4 km/h
Temperatur: 11°C
Taupunkt: 10°C
Luftfeuchte: 94%
Luftdruck: 1019 hPa
Clouds: Few Clouds
Visibility: 10 km
Cloud details: Few Clouds 1829 m
2014/08/21 01:50 LSZC 210150Z AUTO VRB02KT 9999 FEW060 11/10 Q1019